Time;durP1;ratioP1;P1;durP2;ratioP2;P2;SDS_P1;SDS_P2;PMS_P1;PMS_P2;Temp;Humidity;BMP_temperature;BMP_pressure;BME280_temperature;BME280_humidity;BME280_pressure;Samples;Min_cycle;Max_cycle;Signal;HPM_P1;HPM_P2
2021/12/07 00:00:11;;;;;;;;;;;4.00;99.90;;;;;;4981179;28;19950;-82
2021/12/07 00:02:38;;;;;;;;;;;4.00;99.90;;;;;;4989288;28;20011;-83
2021/12/07 00:05:05;;;;;;;;;;;3.90;99.90;;;;;;4991547;28;19926;-83
2021/12/07 00:07:32;;;;;;;;;;;4.00;99.90;;;;;;4998733;28;20314;-83
2021/12/07 00:10:00;;;;;;;;;;;3.90;99.90;;;;;;4991610;28;19926;-82
2021/12/07 00:12:35;;;;;;;;;;;3.90;99.90;;;;;;4984235;28;19958;-81
2021/12/07 00:15:03;;;;;;;;;;;3.90;99.90;;;;;;4965349;28;19986;-83
2021/12/07 00:17:30;;;;;;;;;;;4.00;99.90;;;;;;4985362;28;19926;-80
2021/12/07 00:19:57;;;;;;;;;;;4.00;99.90;;;;;;4998400;28;19926;-83
2021/12/07 00:22:24;;;;;;;;;;;4.10;99.90;;;;;;4999235;28;19926;-83
2021/12/07 00:24:51;;;;;;;;;;;4.20;99.90;;;;;;4989878;28;19926;-82
2021/12/07 00:27:20;;;;;;;;;;;4.20;99.90;;;;;;4997462;28;19926;-82
2021/12/07 00:29:47;;;;;;;;;;;4.30;99.90;;;;;;5000280;28;19965;-83
2021/12/07 00:32:24;;;;;;;;;;;4.30;99.90;;;;;;5001122;28;19930;-75
2021/12/07 00:35:23;;;;;;;;;;;4.30;99.90;;;;;;4999905;28;19926;-84
2021/12/07 00:37:52;;;;;;;;;;;4.30;99.90;;;;;;4984903;28;19910;-80
2021/12/07 00:40:19;;;;;;;;;;;4.20;99.90;;;;;;4999472;28;19910;-83
2021/12/07 00:42:48;;;;;;;;;;;4.10;99.90;;;;;;4996880;28;19910;-82
2021/12/07 00:45:18;;;;;;;;;;;4.10;99.90;;;;;;5000261;28;19910;-82
2021/12/07 00:47:45;;;;;;;;;;;4.00;99.90;;;;;;4993698;28;19910;-81
2021/12/07 00:50:13;;;;;;;;;;;4.00;99.90;;;;;;4982451;28;19911;-81
2021/12/07 00:52:40;;;;;;;;;;;4.00;99.90;;;;;;4996049;28;19910;-82
2021/12/07 00:55:09;;;;;;;;;;;4.00;99.90;;;;;;4990959;28;19911;-78
2021/12/07 00:57:36;;;;;;;;;;;4.00;99.90;;;;;;4987114;28;19933;-82
2021/12/07 01:00:06;;;;;;;;;;;4.10;99.90;;;;;;5000415;28;19954;-74
2021/12/07 01:02:33;;;;;;;;;;;4.00;99.90;;;;;;4980071;28;19926;-82
2021/12/07 01:27:02;;;;;;;;;;;4.10;99.90;;;;;;4982521;28;19922;-75
2021/12/07 01:29:28;;;;;;;;;;;4.10;99.90;;;;;;5000551;28;19910;-81
2021/12/07 01:32:08;;;;;;;;;;;4.10;99.90;;;;;;5000536;28;19910;-77
2021/12/07 01:37:33;;;;;;;;;;;4.10;99.90;;;;;;4983310;28;19910;-82
2021/12/07 01:49:45;;;;;;;;;;;4.00;99.90;;;;;;4957914;28;19914;-82
2021/12/07 01:51:15;;;;;;;;;;;3.90;99.90;;;;;;4999891;28;19914;-79
2021/12/07 02:01:56;;;;;;;;;;;3.80;99.90;;;;;;4980347;28;19917;-82
2021/12/07 02:04:25;;;;;;;;;;;3.80;99.90;;;;;;4970482;28;19929;-83
2021/12/07 02:06:53;;;;;;;;;;;3.70;99.90;;;;;;4979582;28;19926;-82
2021/12/07 02:09:19;;;;;;;;;;;3.70;99.90;;;;;;4990214;28;19910;-81
2021/12/07 02:11:49;;;;;;;;;;;3.70;99.90;;;;;;4999427;28;19950;-79
2021/12/07 02:14:17;;;;;;;;;;;3.60;99.90;;;;;;4999348;28;19949;-82
2021/12/07 02:16:45;;;;;;;;;;;3.70;99.90;;;;;;4983850;28;19945;-82
2021/12/07 02:19:12;;;;;;;;;;;3.70;99.90;;;;;;4980637;28;19910;-83
2021/12/07 02:21:40;;;;;;;;;;;3.70;99.90;;;;;;4979942;28;19926;-75
2021/12/07 02:24:07;;;;;;;;;;;3.70;99.90;;;;;;4980119;28;19941;-82
2021/12/07 02:26:34;;;;;;;;;;;3.80;99.90;;;;;;4980441;28;19935;-83
2021/12/07 02:29:03;;;;;;;;;;;3.80;99.90;;;;;;4966885;28;19910;-81
2021/12/07 02:31:30;;;;;;;;;;;3.80;99.90;;;;;;4997181;28;19910;-79
2021/12/07 02:33:57;;;;;;;;;;;4.00;99.90;;;;;;4999277;28;19910;-79
2021/12/07 02:36:24;;;;;;;;;;;4.00;99.90;;;;;;4973087;28;19911;-77
2021/12/07 02:38:52;;;;;;;;;;;4.00;99.90;;;;;;4980580;28;19935;-77
2021/12/07 02:41:19;;;;;;;;;;;4.10;99.90;;;;;;4992392;28;19910;-82
2021/12/07 02:43:47;;;;;;;;;;;4.00;99.90;;;;;;4990804;28;19911;-83
2021/12/07 02:46:14;;;;;;;;;;;4.10;99.90;;;;;;4988676;28;19910;-78
2021/12/07 02:48:41;;;;;;;;;;;4.20;99.90;;;;;;4995153;28;19943;-81
2021/12/07 02:51:08;;;;;;;;;;;4.20;99.90;;;;;;4987077;28;19910;-82
2021/12/07 02:53:36;;;;;;;;;;;4.20;99.90;;;;;;4969696;28;20028;-82
2021/12/07 02:56:05;;;;;;;;;;;4.10;99.90;;;;;;4991939;28;20251;-82
2021/12/07 02:58:32;;;;;;;;;;;4.10;99.90;;;;;;4997452;28;19926;-82
2021/12/07 03:01:04;;;;;;;;;;;4.10;99.90;;;;;;4998697;28;19918;-82
2021/12/07 03:03:36;;;;;;;;;;;4.10;99.90;;;;;;4990828;28;19934;-82
2021/12/07 03:06:13;;;;;;;;;;;4.00;99.90;;;;;;4998931;28;19930;-83
2021/12/07 03:27:51;;;;;;;;;;;3.50;99.90;;;;;;4987412;28;19986;-81
2021/12/07 03:30:19;;;;;;;;;;;3.50;99.90;;;;;;4995761;28;19917;-81
2021/12/07 03:32:45;;;;;;;;;;;3.40;99.90;;;;;;4995839;28;19924;-83
2021/12/07 03:35:12;;;;;;;;;;;3.40;99.90;;;;;;4984695;28;19927;-82
2021/12/07 03:37:39;;;;;;;;;;;3.50;99.90;;;;;;4977846;29;19933;-82
2021/12/07 03:40:07;;;;;;;;;;;3.50;99.90;;;;;;4972287;28;19917;-82
2021/12/07 03:42:35;;;;;;;;;;;3.50;99.90;;;;;;4984417;28;19959;-81
2021/12/07 03:45:03;;;;;;;;;;;3.50;99.90;;;;;;4983931;28;19927;-83
2021/12/07 03:47:30;;;;;;;;;;;3.40;99.90;;;;;;4998228;28;19948;-82
2021/12/07 03:50:45;;;;;;;;;;;3.40;99.90;;;;;;4994229;28;19926;-83
2021/12/07 03:53:13;;;;;;;;;;;3.40;99.90;;;;;;4995434;28;19926;-83
2021/12/07 03:55:40;;;;;;;;;;;3.50;99.90;;;;;;4993050;28;19915;-82
2021/12/07 03:58:07;;;;;;;;;;;3.40;99.90;;;;;;5001071;28;19934;-80
2021/12/07 04:00:37;;;;;;;;;;;3.40;99.90;;;;;;4994078;28;19910;-82
2021/12/07 04:03:07;;;;;;;;;;;3.40;99.90;;;;;;4993845;28;19933;-78
2021/12/07 04:05:35;;;;;;;;;;;3.50;99.90;;;;;;4995709;28;19910;-82
2021/12/07 04:08:03;;;;;;;;;;;3.40;99.90;;;;;;5001377;28;19916;-77
2021/12/07 04:10:33;;;;;;;;;;;3.30;99.90;;;;;;5001372;28;19910;-80
2021/12/07 04:13:00;;;;;;;;;;;3.30;99.90;;;;;;4983406;28;19977;-82
2021/12/07 04:15:28;;;;;;;;;;;3.20;99.90;;;;;;4997171;28;19918;-82
2021/12/07 04:17:56;;;;;;;;;;;3.20;99.90;;;;;;4992926;28;19919;-82
2021/12/07 04:20:23;;;;;;;;;;;3.10;99.90;;;;;;4985417;28;19927;-82
2021/12/07 04:22:50;;;;;;;;;;;3.10;99.90;;;;;;4970140;28;19929;-83
2021/12/07 04:25:18;;;;;;;;;;;3.00;99.90;;;;;;4989949;28;19934;-82
2021/12/07 04:27:45;;;;;;;;;;;3.00;99.90;;;;;;4967766;28;19966;-83
2021/12/07 04:30:15;;;;;;;;;;;3.00;99.90;;;;;;4982583;28;19911;-78
2021/12/07 04:32:42;;;;;;;;;;;3.00;99.90;;;;;;4986855;28;19917;-80
2021/12/07 04:35:11;;;;;;;;;;;2.90;99.90;;;;;;4995635;28;19911;-79
2021/12/07 04:37:40;;;;;;;;;;;3.00;99.90;;;;;;4986463;28;19952;-78
2021/12/07 04:40:08;;;;;;;;;;;3.00;99.90;;;;;;4996619;28;19911;-72
2021/12/07 04:42:35;;;;;;;;;;;2.90;99.90;;;;;;4985013;28;19922;-74
2021/12/07 04:45:06;;;;;;;;;;;2.90;99.90;;;;;;5001473;28;19911;-70
2021/12/07 04:47:41;;;;;;;;;;;2.90;99.90;;;;;;5029580;23;19910;-74
2021/12/07 04:50:35;;;;;;;;;;;2.80;99.90;;;;;;4987557;28;19934;-77
2021/12/07 04:58:35;;;;;;;;;;;2.70;99.90;;;;;;4997327;28;19937;-83
2021/12/07 05:01:08;;;;;;;;;;;2.60;99.90;;;;;;4981423;28;19946;-83
2021/12/07 05:03:36;;;;;;;;;;;2.70;99.90;;;;;;4983139;28;19926;-83
2021/12/07 05:06:08;;;;;;;;;;;2.50;99.90;;;;;;4990692;28;19933;-83
2021/12/07 05:08:41;;;;;;;;;;;2.50;99.90;;;;;;4995862;28;19962;-83
2021/12/07 05:14:10;;;;;;;;;;;2.50;99.90;;;;;;4981475;28;20345;-82
2021/12/07 05:41:08;;;;;;;;;;;2.30;99.90;;;;;;5669525;23;19933;-75
2021/12/07 05:43:35;;;;;;;;;;;2.20;99.90;;;;;;5000438;28;19917;-75
2021/12/07 05:46:03;;;;;;;;;;;2.20;99.90;;;;;;5000531;28;19910;-72
2021/12/07 05:48:29;;;;;;;;;;;2.30;99.90;;;;;;5000409;28;19968;-74
2021/12/07 05:50:56;;;;;;;;;;;2.20;99.90;;;;;;5000412;28;19910;-73
2021/12/07 05:53:23;;;;;;;;;;;2.20;99.90;;;;;;4983619;28;19917;-76
2021/12/07 05:55:50;;;;;;;;;;;2.10;99.90;;;;;;5000240;28;19918;-74
2021/12/07 05:58:19;;;;;;;;;;;2.20;99.90;;;;;;4999921;28;19934;-73
2021/12/07 06:00:47;;;;;;;;;;;2.10;99.90;;;;;;5000320;28;19934;-72
2021/12/07 06:03:15;;;;;;;;;;;2.10;99.90;;;;;;5000288;28;19910;-77
2021/12/07 06:05:42;;;;;;;;;;;2.10;99.90;;;;;;5000161;28;19917;-85
2021/12/07 06:08:09;;;;;;;;;;;2.20;99.90;;;;;;4999981;28;19910;-74
2021/12/07 06:10:37;;;;;;;;;;;2.10;99.90;;;;;;4999204;28;19910;-75
2021/12/07 06:13:04;;;;;;;;;;;2.10;99.90;;;;;;5000174;28;19910;-73
2021/12/07 06:15:34;;;;;;;;;;;2.20;99.90;;;;;;4972662;28;19911;-73
2021/12/07 06:18:01;;;;;;;;;;;2.10;99.90;;;;;;4980604;28;19911;-73
2021/12/07 06:20:29;;;;;;;;;;;1.90;99.90;;;;;;4963774;28;19911;-74
2021/12/07 06:22:55;;;;;;;;;;;2.00;99.90;;;;;;4963809;28;20021;-79
2021/12/07 06:25:22;;;;;;;;;;;2.00;99.90;;;;;;4948272;28;19934;-74
2021/12/07 06:27:50;;;;;;;;;;;2.00;99.90;;;;;;4980504;28;19917;-74
2021/12/07 06:30:17;;;;;;;;;;;2.00;99.90;;;;;;4980791;28;19934;-75
2021/12/07 06:32:45;;;;;;;;;;;2.10;99.90;;;;;;4980565;28;20218;-74
2021/12/07 06:53:50;;;;;;;;;;;1.70;99.90;;;;;;5091517;23;19930;-73
2021/12/07 06:56:28;;;;;;;;;;;1.60;99.90;;;;;;4983713;28;19942;-74
2021/12/07 06:58:57;;;;;;;;;;;1.70;99.90;;;;;;4983628;28;19938;-75
2021/12/07 07:11:45;;;;;;;;;;;1.60;99.90;;;;;;5148771;23;19911;-79
2021/12/07 07:14:14;;;;;;;;;;;1.60;99.90;;;;;;4971334;28;19949;-79
2021/12/07 07:16:43;;;;;;;;;;;1.70;99.90;;;;;;4983158;28;19928;-80
2021/12/07 07:21:45;;;;;;;;;;;1.70;99.90;;;;;;5253915;23;19914;-75
2021/12/07 07:24:12;;;;;;;;;;;1.70;99.90;;;;;;4977124;28;19922;-72
2021/12/07 07:26:39;;;;;;;;;;;1.70;99.90;;;;;;4966240;28;20386;-78
2021/12/07 07:29:07;;;;;;;;;;;1.70;99.90;;;;;;4990661;28;19961;-76
2021/12/07 07:31:36;;;;;;;;;;;1.70;99.90;;;;;;4984353;28;19953;-78
2021/12/07 07:34:03;;;;;;;;;;;1.80;99.90;;;;;;4982957;28;19917;-70
2021/12/07 07:36:30;;;;;;;;;;;1.70;99.90;;;;;;4983045;28;19945;-75
2021/12/07 07:41:37;;;;;;;;;;;1.60;99.90;;;;;;4945831;29;20403;-79
2021/12/07 07:44:05;;;;;;;;;;;1.60;99.90;;;;;;4959863;29;20009;-80
2021/12/07 07:46:33;;;;;;;;;;;1.60;99.90;;;;;;4967191;28;19949;-80
2021/12/07 07:49:03;;;;;;;;;;;1.70;99.90;;;;;;4942016;29;19931;-80
2021/12/07 07:51:33;;;;;;;;;;;1.70;99.90;;;;;;4959836;29;20315;-77
2021/12/07 07:53:59;;;;;;;;;;;1.70;99.90;;;;;;4966444;29;19950;-79
2021/12/07 07:56:26;;;;;;;;;;;1.70;99.90;;;;;;4971208;28;19962;-79
2021/12/07 07:58:54;;;;;;;;;;;1.70;99.90;;;;;;4978076;28;19914;-77
2021/12/07 08:04:12;;;;;;;;;;;1.60;99.90;;;;;;5369160;23;19910;-71
2021/12/07 08:06:39;;;;;;;;;;;1.70;99.90;;;;;;5006713;28;19910;-73
2021/12/07 08:09:08;;;;;;;;;;;1.60;99.90;;;;;;5002051;28;19990;-73
2021/12/07 08:11:35;;;;;;;;;;;1.70;99.90;;;;;;5004157;28;19985;-72
2021/12/07 08:14:02;;;;;;;;;;;1.70;99.90;;;;;;5004367;28;19914;-79
2021/12/07 08:16:29;;;;;;;;;;;1.70;99.90;;;;;;5004640;28;19922;-78
2021/12/07 08:18:58;;;;;;;;;;;1.70;99.90;;;;;;4988117;28;19910;-74
2021/12/07 08:21:25;;;;;;;;;;;1.70;99.90;;;;;;5020832;28;19909;-78
2021/12/07 08:23:52;;;;;;;;;;;1.80;99.90;;;;;;5011472;28;20287;-82
2021/12/07 08:26:23;;;;;;;;;;;1.80;99.90;;;;;;5020802;28;19922;-75
2021/12/07 08:28:49;;;;;;;;;;;1.80;99.90;;;;;;5004530;28;19910;-73
2021/12/07 08:31:16;;;;;;;;;;;1.90;99.90;;;;;;5000628;28;19930;-77
2021/12/07 08:33:43;;;;;;;;;;;1.90;99.90;;;;;;5001079;28;19989;-83
2021/12/07 08:43:49;;;;;;;;;;;2.90;99.90;;;;;;5019320;23;19933;-80
2021/12/07 08:46:16;;;;;;;;;;;3.70;99.90;;;;;;4965470;28;19982;-79
2021/12/07 08:48:43;;;;;;;;;;;4.50;99.90;;;;;;5085087;23;19927;-77
2021/12/07 08:51:10;;;;;;;;;;;5.20;99.90;;;;;;4975677;28;20113;-79
2021/12/07 08:53:45;;;;;;;;;;;5.60;99.90;;;;;;4976922;28;19994;-80
2021/12/07 09:01:42;;;;;;;;;;;6.20;99.90;;;;;;4983053;28;19928;-78
2021/12/07 09:04:10;;;;;;;;;;;6.90;99.90;;;;;;4990451;28;19937;-79
2021/12/07 09:06:37;;;;;;;;;;;7.30;99.90;;;;;;4968406;28;19954;-80
2021/12/07 09:09:04;;;;;;;;;;;7.40;99.90;;;;;;4982110;28;19973;-79
2021/12/07 09:11:31;;;;;;;;;;;7.10;99.90;;;;;;4961248;28;19949;-79
2021/12/07 09:13:59;;;;;;;;;;;7.60;99.90;;;;;;4981939;28;19932;-79
2021/12/07 09:16:26;;;;;;;;;;;7.80;98.70;;;;;;4985658;28;20404;-80
2021/12/07 09:18:53;;;;;;;;;;;6.60;97.90;;;;;;4971277;28;20029;-79
2021/12/07 09:21:24;;;;;;;;;;;5.30;99.90;;;;;;4978192;28;20017;-80
2021/12/07 09:23:52;;;;;;;;;;;4.50;99.90;;;;;;4964553;28;19997;-77
2021/12/07 09:38:03;;;;;;;;;;;3.60;99.90;;;;;;4923845;29;19918;-76
2021/12/07 09:40:30;;;;;;;;;;;3.60;99.90;;;;;;4950947;28;19911;-79
2021/12/07 09:42:58;;;;;;;;;;;3.70;99.90;;;;;;4979320;28;19997;-81
2021/12/07 09:45:26;;;;;;;;;;;3.80;99.90;;;;;;4980219;28;19911;-80
2021/12/07 09:47:53;;;;;;;;;;;3.90;99.90;;;;;;4963625;28;19911;-75
2021/12/07 09:50:21;;;;;;;;;;;4.00;99.90;;;;;;4969146;28;19911;-76
2021/12/07 09:52:48;;;;;;;;;;;4.10;99.90;;;;;;4967988;28;19950;-74
2021/12/07 09:55:17;;;;;;;;;;;4.20;99.90;;;;;;4979595;28;19915;-76
2021/12/07 09:57:44;;;;;;;;;;;4.20;99.90;;;;;;4959485;28;19927;-80
2021/12/07 10:00:14;;;;;;;;;;;4.30;99.90;;;;;;4976528;28;19917;-80
2021/12/07 10:09:13;;;;;;;;;;;4.50;99.90;;;;;;4941085;29;19909;-70
2021/12/07 10:11:41;;;;;;;;;;;4.60;99.90;;;;;;4968569;28;19914;-75
2021/12/07 10:14:08;;;;;;;;;;;4.50;99.90;;;;;;4999969;28;19922;-76
2021/12/07 10:24:53;;;;;;;;;;;4.50;99.90;;;;;;5362434;23;19921;-79
2021/12/07 10:27:34;;;;;;;;;;;4.60;99.90;;;;;;5029570;28;19929;-78
2021/12/07 10:30:04;;;;;;;;;;;4.50;99.90;;;;;;5016389;28;19948;-80
2021/12/07 10:32:31;;;;;;;;;;;4.40;99.90;;;;;;5015273;28;19917;-78
2021/12/07 10:34:58;;;;;;;;;;;4.50;99.90;;;;;;5020806;28;19941;-80
2021/12/07 10:37:29;;;;;;;;;;;4.30;99.90;;;;;;5025291;28;19909;-79
2021/12/07 10:39:56;;;;;;;;;;;4.30;99.90;;;;;;5007795;28;20375;-76
2021/12/07 10:42:25;;;;;;;;;;;4.20;99.90;;;;;;5006568;28;19917;-79
2021/12/07 10:44:53;;;;;;;;;;;4.20;99.90;;;;;;5008429;28;19948;-79
2021/12/07 10:47:21;;;;;;;;;;;4.10;99.90;;;;;;5008317;28;19914;-77
2021/12/07 10:49:50;;;;;;;;;;;4.10;99.90;;;;;;5007062;28;20033;-77
2021/12/07 10:52:23;;;;;;;;;;;4.10;99.90;;;;;;5001241;28;19933;-79
2021/12/07 10:54:52;;;;;;;;;;;4.10;99.90;;;;;;5005651;28;19986;-79
2021/12/07 10:57:20;;;;;;;;;;;4.10;99.90;;;;;;5022071;28;19928;-76
2021/12/07 11:13:52;;;;;;;;;;;4.30;99.90;;;;;;5022102;23;19935;-79
2021/12/07 11:16:19;;;;;;;;;;;4.50;99.90;;;;;;4986135;28;19953;-79
2021/12/07 11:18:48;;;;;;;;;;;4.60;99.90;;;;;;4981401;28;19981;-78
2021/12/07 11:21:17;;;;;;;;;;;4.70;99.90;;;;;;4982471;28;19970;-70
2021/12/07 11:23:45;;;;;;;;;;;4.90;99.90;;;;;;4989855;28;19917;-72
2021/12/07 11:31:52;;;;;;;;;;;5.30;99.90;;;;;;5000106;28;19933;-76
2021/12/07 11:34:19;;;;;;;;;;;5.40;99.90;;;;;;4983265;28;19922;-68
2021/12/07 11:36:48;;;;;;;;;;;5.60;99.90;;;;;;5000177;23;19917;-71
2021/12/07 11:39:22;;;;;;;;;;;5.70;99.90;;;;;;5001984;28;19910;-81
2021/12/07 11:41:52;;;;;;;;;;;5.90;99.90;;;;;;4995900;28;19926;-77
2021/12/07 11:44:21;;;;;;;;;;;6.10;99.90;;;;;;4990902;28;19956;-78
2021/12/07 11:46:51;;;;;;;;;;;6.20;99.90;;;;;;5000759;28;19925;-80
2021/12/07 11:49:20;;;;;;;;;;;6.20;99.90;;;;;;4989862;28;19934;-77
2021/12/07 11:51:51;;;;;;;;;;;6.10;99.90;;;;;;4980302;28;19934;-75
2021/12/07 11:54:19;;;;;;;;;;;6.10;99.90;;;;;;4978036;28;19930;-79
2021/12/07 11:56:47;;;;;;;;;;;6.00;99.90;;;;;;4983948;28;19965;-77
2021/12/07 11:59:15;;;;;;;;;;;6.00;99.90;;;;;;4965845;28;19993;-78
2021/12/07 12:01:44;;;;;;;;;;;6.00;99.90;;;;;;4980575;28;20450;-77
2021/12/07 12:04:10;;;;;;;;;;;6.10;99.90;;;;;;4998984;28;19932;-79
2021/12/07 12:09:23;;;;;;;;;;;6.10;99.90;;;;;;5030937;28;19989;-78
2021/12/07 12:11:52;;;;;;;;;;;6.20;99.90;;;;;;5027210;28;20276;-78
2021/12/07 12:20:19;;;;;;;;;;;6.20;99.90;;;;;;5978614;22;19921;-75
2021/12/07 12:25:27;;;;;;;;;;;6.20;99.90;;;;;;6021749;22;19917;-82
2021/12/07 12:27:55;;;;;;;;;;;6.20;99.90;;;;;;5097258;22;19932;-80
2021/12/07 12:36:26;;;;;;;;;;;6.10;99.90;;;;;;5394011;22;19932;-80
2021/12/07 12:38:57;;;;;;;;;;;6.30;99.90;;;;;;5144822;27;19908;-81
2021/12/07 12:41:26;;;;;;;;;;;6.10;99.90;;;;;;5182850;22;20010;-79
2021/12/07 12:43:54;;;;;;;;;;;5.90;99.90;;;;;;5109842;28;19973;-81
2021/12/07 12:46:23;;;;;;;;;;;5.90;99.90;;;;;;5118699;27;19915;-81
2021/12/07 12:48:51;;;;;;;;;;;5.90;99.90;;;;;;5081753;28;19964;-78
2021/12/07 12:51:19;;;;;;;;;;;5.90;99.90;;;;;;5075333;28;19955;-79
2021/12/07 12:53:47;;;;;;;;;;;5.90;99.90;;;;;;5073736;28;20015;-79
2021/12/07 12:56:16;;;;;;;;;;;5.90;99.90;;;;;;5077020;28;19987;-78
2021/12/07 12:58:45;;;;;;;;;;;6.00;99.90;;;;;;5068174;28;19967;-77
2021/12/07 13:01:16;;;;;;;;;;;5.90;99.90;;;;;;5070933;28;19979;-79
2021/12/07 13:03:48;;;;;;;;;;;6.00;99.90;;;;;;5067794;28;19935;-79
2021/12/07 13:06:17;;;;;;;;;;;6.00;99.90;;;;;;5068880;28;19960;-80
2021/12/07 13:08:57;;;;;;;;;;;6.10;99.90;;;;;;5090423;28;19947;-79
2021/12/07 13:11:44;;;;;;;;;;;6.10;99.90;;;;;;5100996;28;19916;-74
2021/12/07 13:14:32;;;;;;;;;;;6.00;99.90;;;;;;5079163;28;19933;-79
2021/12/07 13:17:02;;;;;;;;;;;6.00;99.90;;;;;;5061331;28;19975;-79
2021/12/07 13:19:30;;;;;;;;;;;6.00;99.90;;;;;;5067256;28;19964;-79
2021/12/07 13:22:03;;;;;;;;;;;6.00;99.90;;;;;;5066274;28;19952;-79
2021/12/07 13:24:34;;;;;;;;;;;6.00;99.90;;;;;;5083702;22;19950;-80
2021/12/07 13:27:01;;;;;;;;;;;6.00;99.90;;;;;;5092333;28;20062;-78
2021/12/07 13:29:28;;;;;;;;;;;6.00;99.90;;;;;;5096220;28;19976;-80
2021/12/07 13:31:57;;;;;;;;;;;6.00;99.90;;;;;;5109265;22;20056;-81
2021/12/07 13:34:26;;;;;;;;;;;6.00;99.90;;;;;;5092511;28;20374;-74
2021/12/07 13:36:58;;;;;;;;;;;6.00;99.90;;;;;;5109917;28;19934;-78
2021/12/07 13:39:48;;;;;;;;;;;6.00;99.90;;;;;;5118011;28;19919;-78
2021/12/07 13:42:22;;;;;;;;;;;6.00;99.90;;;;;;5111180;28;20015;-78
2021/12/07 13:44:53;;;;;;;;;;;6.00;99.90;;;;;;5120733;28;19912;-70
2021/12/07 13:47:22;;;;;;;;;;;6.00;99.90;;;;;;5109160;28;19944;-77
2021/12/07 13:49:51;;;;;;;;;;;6.00;99.90;;;;;;5097029;28;19924;-73
2021/12/07 13:52:19;;;;;;;;;;;6.00;99.90;;;;;;5093922;28;19913;-78
2021/12/07 13:54:47;;;;;;;;;;;6.00;99.90;;;;;;5096913;28;20395;-80
2021/12/07 13:57:15;;;;;;;;;;;5.90;99.90;;;;;;5106101;22;19932;-79
2021/12/07 13:59:41;;;;;;;;;;;5.90;99.90;;;;;;5099105;28;19963;-78
2021/12/07 14:02:08;;;;;;;;;;;5.90;99.90;;;;;;5098243;28;19928;-79
2021/12/07 14:04:36;;;;;;;;;;;5.80;99.90;;;;;;5105727;28;20441;-78
2021/12/07 14:07:03;;;;;;;;;;;5.80;99.90;;;;;;5100235;28;19939;-75
2021/12/07 14:09:30;;;;;;;;;;;5.70;99.90;;;;;;5090272;28;19932;-77
2021/12/07 14:11:58;;;;;;;;;;;5.70;99.90;;;;;;5094118;28;20078;-77
2021/12/07 14:14:25;;;;;;;;;;;5.70;99.90;;;;;;5091366;28;19927;-77
2021/12/07 14:16:55;;;;;;;;;;;5.70;99.90;;;;;;5092551;28;19924;-79
2021/12/07 14:19:23;;;;;;;;;;;5.70;99.90;;;;;;5100629;28;19931;-77
2021/12/07 14:21:54;;;;;;;;;;;5.70;99.90;;;;;;5103644;28;19943;-75
2021/12/07 14:24:20;;;;;;;;;;;5.60;99.90;;;;;;5104793;28;19936;-77
2021/12/07 14:26:48;;;;;;;;;;;5.60;99.90;;;;;;5099946;28;19924;-78
2021/12/07 14:29:16;;;;;;;;;;;5.60;99.90;;;;;;5102582;28;19930;-77
2021/12/07 14:31:47;;;;;;;;;;;5.60;99.90;;;;;;5103259;28;19939;-79
2021/12/07 14:34:17;;;;;;;;;;;5.60;99.90;;;;;;5111114;28;19935;-81
2021/12/07 14:36:53;;;;;;;;;;;5.60;99.90;;;;;;5119573;28;19916;-72
2021/12/07 14:39:25;;;;;;;;;;;5.60;99.90;;;;;;5116314;28;19912;-79
2021/12/07 14:41:53;;;;;;;;;;;5.60;99.90;;;;;;5099468;28;19932;-78
2021/12/07 14:44:20;;;;;;;;;;;5.60;99.90;;;;;;5104045;28;19952;-77
2021/12/07 14:46:51;;;;;;;;;;;5.50;99.90;;;;;;5112666;28;20466;-79
2021/12/07 14:49:18;;;;;;;;;;;5.60;99.90;;;;;;5114575;28;19908;-78
2021/12/07 14:51:45;;;;;;;;;;;5.60;99.90;;;;;;5115118;28;19944;-80
2021/12/07 14:54:14;;;;;;;;;;;5.60;99.90;;;;;;5119984;28;19976;-70
2021/12/07 14:56:43;;;;;;;;;;;5.60;99.90;;;;;;5104318;28;20088;-77
2021/12/07 14:59:39;;;;;;;;;;;5.60;99.90;;;;;;5090222;28;19928;-77
2021/12/07 15:02:11;;;;;;;;;;;5.60;99.90;;;;;;5099960;28;19931;-79
2021/12/07 15:04:39;;;;;;;;;;;5.50;99.90;;;;;;5103361;28;19924;-78
2021/12/07 15:07:09;;;;;;;;;;;5.50;99.90;;;;;;5098868;28;19924;-79
2021/12/07 15:09:37;;;;;;;;;;;5.40;99.90;;;;;;5108015;28;19920;-80
2021/12/07 15:12:07;;;;;;;;;;;5.40;99.90;;;;;;5101220;28;19925;-78
2021/12/07 15:15:05;;;;;;;;;;;5.40;99.90;;;;;;5100142;28;19943;-77
2021/12/07 15:17:35;;;;;;;;;;;5.30;99.90;;;;;;5114046;28;19942;-79
2021/12/07 15:22:34;;;;;;;;;;;5.30;99.90;;;;;;5097711;28;19915;-71
2021/12/07 15:25:01;;;;;;;;;;;5.40;99.90;;;;;;5098574;28;19936;-77
2021/12/07 15:27:30;;;;;;;;;;;5.30;99.90;;;;;;5090429;28;19921;-79
2021/12/07 15:29:58;;;;;;;;;;;5.30;99.90;;;;;;5085627;28;19928;-81
2021/12/07 15:32:25;;;;;;;;;;;5.20;99.90;;;;;;5080477;28;19924;-81
2021/12/07 15:34:53;;;;;;;;;;;5.20;99.90;;;;;;5081578;28;19963;-73
2021/12/07 15:37:21;;;;;;;;;;;5.20;99.90;;;;;;5078887;28;19925;-81
2021/12/07 15:39:50;;;;;;;;;;;5.20;99.90;;;;;;5077429;28;20000;-79
2021/12/07 15:42:19;;;;;;;;;;;5.20;99.90;;;;;;5074966;28;19924;-79
2021/12/07 15:44:52;;;;;;;;;;;5.20;99.90;;;;;;5079323;28;19951;-79
2021/12/07 15:47:21;;;;;;;;;;;5.10;99.90;;;;;;5073738;28;19952;-76
2021/12/07 15:49:49;;;;;;;;;;;5.10;99.90;;;;;;5087160;28;19915;-78
2021/12/07 15:52:17;;;;;;;;;;;5.10;99.90;;;;;;5088224;28;19992;-77
2021/12/07 15:54:59;;;;;;;;;;;5.10;99.90;;;;;;5072763;28;19975;-78
2021/12/07 15:57:27;;;;;;;;;;;5.10;99.90;;;;;;5084788;28;19924;-79
2021/12/07 15:59:57;;;;;;;;;;;5.00;99.90;;;;;;5094765;28;20003;-77
2021/12/07 16:02:24;;;;;;;;;;;5.00;99.90;;;;;;5087903;28;19949;-78
2021/12/07 16:04:51;;;;;;;;;;;5.00;99.90;;;;;;5098561;28;19915;-76
2021/12/07 16:07:20;;;;;;;;;;;5.00;99.90;;;;;;5100335;22;19916;-71
2021/12/07 16:09:48;;;;;;;;;;;5.00;99.90;;;;;;5078789;28;19916;-80
2021/12/07 16:12:34;;;;;;;;;;;5.00;99.90;;;;;;5016082;28;19929;-78
2021/12/07 16:17:55;;;;;;;;;;;5.00;99.90;;;;;;5120505;22;20005;-78
2021/12/07 16:25:39;;;;;;;;;;;5.10;99.90;;;;;;5061655;22;19948;-78
2021/12/07 16:28:06;;;;;;;;;;;5.10;99.90;;;;;;5030088;28;19925;-79
2021/12/07 16:30:33;;;;;;;;;;;5.10;99.90;;;;;;5026004;28;19925;-79
2021/12/07 16:33:02;;;;;;;;;;;5.10;99.90;;;;;;5037136;28;19916;-80
2021/12/07 16:35:29;;;;;;;;;;;5.10;99.90;;;;;;5038457;28;19980;-79
2021/12/07 16:37:56;;;;;;;;;;;5.10;99.90;;;;;;5026115;28;19931;-78
2021/12/07 16:40:23;;;;;;;;;;;5.10;99.90;;;;;;5029040;28;19933;-76
2021/12/07 16:42:51;;;;;;;;;;;5.20;99.90;;;;;;5026719;28;20295;-77
2021/12/07 16:45:20;;;;;;;;;;;5.10;99.90;;;;;;5027044;28;19933;-77
2021/12/07 16:47:47;;;;;;;;;;;5.10;99.90;;;;;;5032532;28;19932;-78
2021/12/07 16:50:16;;;;;;;;;;;5.20;99.90;;;;;;5040176;28;20034;-75
2021/12/07 16:52:43;;;;;;;;;;;5.20;99.90;;;;;;5038649;28;19909;-74
2021/12/07 16:55:11;;;;;;;;;;;5.20;99.90;;;;;;5055646;28;19955;-78
2021/12/07 16:57:38;;;;;;;;;;;5.20;99.90;;;;;;5046884;28;19925;-79
2021/12/07 17:00:06;;;;;;;;;;;5.20;99.90;;;;;;5037946;28;20370;-80
2021/12/07 17:02:36;;;;;;;;;;;5.20;99.90;;;;;;5036169;28;19971;-80
2021/12/07 17:05:04;;;;;;;;;;;5.20;99.90;;;;;;5041396;28;19925;-81
2021/12/07 17:07:32;;;;;;;;;;;5.20;99.90;;;;;;5040932;28;19933;-79
2021/12/07 17:09:59;;;;;;;;;;;5.20;99.90;;;;;;5042369;28;20027;-78
2021/12/07 17:12:25;;;;;;;;;;;5.20;99.90;;;;;;5017147;28;20368;-77
2021/12/07 17:14:52;;;;;;;;;;;5.20;99.90;;;;;;5042179;28;19964;-80
2021/12/07 17:17:19;;;;;;;;;;;5.20;99.90;;;;;;5046313;28;19969;-80
2021/12/07 17:19:45;;;;;;;;;;;5.20;99.90;;;;;;5035949;28;20024;-78
2021/12/07 17:22:12;;;;;;;;;;;5.20;99.90;;;;;;5029710;28;19979;-78
2021/12/07 17:24:41;;;;;;;;;;;5.20;99.90;;;;;;5036083;28;19925;-79
2021/12/07 17:27:08;;;;;;;;;;;5.30;99.90;;;;;;5029696;28;19940;-77
2021/12/07 17:29:35;;;;;;;;;;;5.30;99.90;;;;;;5027822;28;20039;-77
2021/12/07 17:32:02;;;;;;;;;;;5.30;99.90;;;;;;5032436;28;19956;-79
2021/12/07 17:34:29;;;;;;;;;;;5.30;99.90;;;;;;5031457;28;20265;-79
2021/12/07 17:36:56;;;;;;;;;;;5.30;99.90;;;;;;5035179;28;19937;-76
2021/12/07 17:41:52;;;;;;;;;;;5.40;99.90;;;;;;5176821;22;19923;-80
2021/12/07 17:44:19;;;;;;;;;;;5.40;99.90;;;;;;5122618;27;19987;-78
2021/12/07 17:46:45;;;;;;;;;;;5.40;99.90;;;;;;5119863;27;19923;-77
2021/12/07 17:49:13;;;;;;;;;;;5.40;99.90;;;;;;5118826;27;19932;-78
2021/12/07 17:51:40;;;;;;;;;;;5.50;99.90;;;;;;5118251;27;20555;-78
2021/12/07 17:54:08;;;;;;;;;;;5.50;99.90;;;;;;5118534;27;19924;-79
2021/12/07 17:56:34;;;;;;;;;;;5.60;99.90;;;;;;5126341;27;19938;-78
2021/12/07 17:59:03;;;;;;;;;;;5.60;99.90;;;;;;5124428;27;19990;-78
2021/12/07 18:01:30;;;;;;;;;;;5.60;99.90;;;;;;5119784;27;19923;-78
2021/12/07 18:03:57;;;;;;;;;;;5.60;99.90;;;;;;5116839;27;19928;-78
2021/12/07 18:06:24;;;;;;;;;;;5.60;99.90;;;;;;5122681;27;19983;-78
2021/12/07 18:08:50;;;;;;;;;;;5.70;99.90;;;;;;5120278;27;19930;-78
2021/12/07 18:11:17;;;;;;;;;;;5.70;99.90;;;;;;5118696;27;20018;-78
2021/12/07 18:13:45;;;;;;;;;;;5.70;99.90;;;;;;5123746;27;19923;-78
2021/12/07 18:16:13;;;;;;;;;;;5.70;99.90;;;;;;5120431;27;19924;-78
2021/12/07 18:18:40;;;;;;;;;;;5.80;99.90;;;;;;5119400;27;19942;-78
2021/12/07 18:21:07;;;;;;;;;;;5.80;99.90;;;;;;5116125;27;19963;-78